Pagina principale
METAR-TAF:

METAR-TAF

Aeroporti :

Aeroporto di Reggio Calabria

Reggio Calabria, Italia

latitudine: 38-04N, longitudine: 015-39E, altezza: 11 m

Osservazione

Il bollettino è stato emesso 1 ora e 7 minuti fa, alle 11:50 UTC
Vento 10 kt da nord
Temperature 20°C
Umidità 68%
Pressione 1021 hPa
Visibilità 10 km o più
Poco nuvoloso ad un'altezza di 3000 ft

METAR: LICR 061150Z 36010KT 9999 FEW030 20/14 Q1021

Ora: 13:57 (12:57 UTC)

Previsione

Il bollettino è stato emesso 1 ora e 57 minuti fa, alle 11:00 UTC
Previsione valida dal 06 alle 12 UTC al 07 alle 12 UTC
Vento 10 kt da nord
Visibilità 10 km o più
Nubi sparse ad un'altezza di 3000 ft

TAF: LICR 061100Z 0612/0712 35010KT 9999 SCT030

Osservazioni e previsioni meteorologiche di più di 4000 aeroporti (messaggi METAR e TAF).

Le stazioni disponibili sono rappresentate dai dischi gialli e rossi sulla carta.

Puntare il mouse per vedere il nome della stazione.

Clicca sopra per visualizzare le osservazioni e previsioni meteorologiche.

Per cambiare la mappa : fare clic sui pulsanti verdi con una croce nera per ingrandire, il pulsante verde con un trattino per diminuire, o sulla freccia verde per le mappe adiacenti.


METAR-TAF: